San Antonio, Texas
Traffic Map
Current Weather Conditions
San Antonio, Texas
Clear
Clear
21°
Feels Like: 21°
Wind Chill: 21° Ceiling: Unl
Heat Index: 21° Visibility: 10mi
Dew Point: 18° Wind: 7mph
Humidity: 82% Direction: 140° (SE)
Pressure: 29.92in Gusts: 0mph
Raw Report DataKSKF 231358Z AUTO 14006KT 10SM CLR 21/18 A2992 RMK AO2 SLP126 T02140183 $
Traffic Incident Summary
Active as of:
Severity:
Category:
InformationThere was an issue retrieving the traffic information for this location. Please try a different location or try again shortly.
Advertisements
At Last! Intellicast now available for iPhone and Android